Time;durP1;ratioP1;P1;durP2;ratioP2;P2;SDS_P1;SDS_P2;PMS_P1;PMS_P2;Temp;Humidity;BMP_temperature;BMP_pressure;BME280_temperature;BME280_humidity;BME280_pressure;Samples;Min_cycle;Max_cycle;Signal;HPM_P1;HPM_P2
2022/06/24 00:02:10;;;;;;;;;;;20.20;99.90;;;;;;5052903;28;19986;-80
2022/06/24 00:04:36;;;;;;;;;;;20.00;99.90;;;;;;5034608;28;19928;-80
2022/06/24 00:07:11;;;;;;;;;;;19.90;99.90;;;;;;5038330;28;19971;-81
2022/06/24 00:10:08;;;;;;;;;;;19.80;99.90;;;;;;5034368;28;19940;-81
2022/06/24 00:12:35;;;;;;;;;;;19.90;99.90;;;;;;5029491;28;19940;-80
2022/06/24 00:15:01;;;;;;;;;;;19.70;99.90;;;;;;5054450;28;19935;-81
2022/06/24 00:17:28;;;;;;;;;;;19.60;99.90;;;;;;5036615;28;19938;-81
2022/06/24 00:20:00;;;;;;;;;;;19.80;99.90;;;;;;5036861;28;19927;-81
2022/06/24 00:22:27;;;;;;;;;;;19.70;99.90;;;;;;5035815;28;19947;-80
2022/06/24 00:25:09;;;;;;;;;;;19.80;99.90;;;;;;5030862;28;19932;-80
2022/06/24 00:27:35;;;;;;;;;;;19.70;99.90;;;;;;5031942;28;19928;-80
2022/06/24 00:30:09;;;;;;;;;;;19.60;99.90;;;;;;5031209;28;20742;-80
2022/06/24 00:32:35;;;;;;;;;;;19.50;99.90;;;;;;5031239;28;20480;-81
2022/06/24 00:35:02;;;;;;;;;;;19.90;99.90;;;;;;5013696;28;19928;-80
2022/06/24 00:37:29;;;;;;;;;;;20.00;99.90;;;;;;5055369;28;20023;-81
2022/06/24 00:40:21;;;;;;;;;;;20.20;99.90;;;;;;5034903;28;19951;-81
2022/06/24 00:42:47;;;;;;;;;;;20.40;99.90;;;;;;5047386;28;19989;-81
2022/06/24 00:45:36;;;;;;;;;;;20.70;99.90;;;;;;5032661;28;19951;-80
2022/06/24 00:48:07;;;;;;;;;;;20.70;99.90;;;;;;5034081;28;20373;-81
2022/06/24 00:50:32;;;;;;;;;;;20.70;99.90;;;;;;5038170;28;20626;-80
2022/06/24 00:53:01;;;;;;;;;;;20.60;99.90;;;;;;5019477;28;19985;-81
2022/06/24 00:55:29;;;;;;;;;;;20.70;99.90;;;;;;5052361;28;19939;-80
2022/06/24 00:57:59;;;;;;;;;;;20.60;99.90;;;;;;5031381;28;20442;-80
2022/06/24 01:00:26;;;;;;;;;;;20.80;99.90;;;;;;5053056;28;20427;-81
2022/06/24 01:03:02;;;;;;;;;;;20.80;99.90;;;;;;5031572;28;19946;-81
2022/06/24 01:05:29;;;;;;;;;;;20.50;99.90;;;;;;5036163;28;19933;-81
2022/06/24 01:07:55;;;;;;;;;;;20.60;99.90;;;;;;5054542;28;19928;-81
2022/06/24 01:10:20;;;;;;;;;;;20.50;99.90;;;;;;5033342;28;19943;-80
2022/06/24 01:12:46;;;;;;;;;;;20.40;99.90;;;;;;5049141;28;19929;-80
2022/06/24 01:15:12;;;;;;;;;;;20.30;99.90;;;;;;5037479;28;19998;-81
2022/06/24 01:17:38;;;;;;;;;;;20.10;99.90;;;;;;5032157;28;19971;-81
2022/06/24 01:20:09;;;;;;;;;;;20.00;99.90;;;;;;5053732;28;20935;-81
2022/06/24 01:22:34;;;;;;;;;;;20.00;99.90;;;;;;5028724;28;19974;-81
2022/06/24 01:25:00;;;;;;;;;;;20.10;99.90;;;;;;5031198;28;21072;-81
2022/06/24 01:27:26;;;;;;;;;;;20.30;99.90;;;;;;5051791;28;19929;-81
2022/06/24 01:29:52;;;;;;;;;;;20.10;99.90;;;;;;5034626;28;20301;-81
2022/06/24 01:32:20;;;;;;;;;;;20.10;99.90;;;;;;5056203;28;19932;-81
2022/06/24 01:34:46;;;;;;;;;;;20.10;99.90;;;;;;5056869;28;20615;-80
2022/06/24 01:37:12;;;;;;;;;;;19.90;99.90;;;;;;5057184;28;19990;-81
2022/06/24 01:39:38;;;;;;;;;;;19.90;99.90;;;;;;5056318;28;20027;-80
2022/06/24 01:42:04;;;;;;;;;;;20.00;99.90;;;;;;5038318;28;20633;-81
2022/06/24 01:44:29;;;;;;;;;;;19.90;99.90;;;;;;5036424;28;19928;-81
2022/06/24 01:46:55;;;;;;;;;;;20.00;99.90;;;;;;5059305;28;19968;-80
2022/06/24 01:49:21;;;;;;;;;;;20.00;99.90;;;;;;5035957;28;19928;-81
2022/06/24 01:51:48;;;;;;;;;;;20.10;99.90;;;;;;5037667;28;19928;-80
2022/06/24 01:54:14;;;;;;;;;;;20.00;99.90;;;;;;5056234;28;19928;-81
2022/06/24 01:56:39;;;;;;;;;;;20.00;99.90;;;;;;5041796;28;19932;-81
2022/06/24 01:59:05;;;;;;;;;;;20.10;99.90;;;;;;5055838;28;19936;-81
2022/06/24 02:01:31;;;;;;;;;;;20.00;99.90;;;;;;5018269;28;20305;-80
2022/06/24 02:03:57;;;;;;;;;;;20.10;99.90;;;;;;5052082;28;19984;-80
2022/06/24 02:06:22;;;;;;;;;;;20.00;99.90;;;;;;5059307;28;19928;-81
2022/06/24 02:08:48;;;;;;;;;;;20.10;99.90;;;;;;5032896;28;19928;-81
2022/06/24 02:13:59;;;;;;;;;;;20.10;99.90;;;;;;5048691;28;19933;-81
2022/06/24 02:16:26;;;;;;;;;;;20.10;99.90;;;;;;5019124;28;20417;-80
2022/06/24 02:18:53;;;;;;;;;;;20.20;99.90;;;;;;5047904;28;20023;-80
2022/06/24 02:21:20;;;;;;;;;;;20.00;99.90;;;;;;5052935;28;20428;-81
2022/06/24 02:23:46;;;;;;;;;;;20.00;99.90;;;;;;5039061;28;20157;-81
2022/06/24 02:26:12;;;;;;;;;;;19.90;99.90;;;;;;5058438;28;19935;-80
2022/06/24 02:28:37;;;;;;;;;;;19.90;99.90;;;;;;5036731;28;20534;-81
2022/06/24 02:31:04;;;;;;;;;;;20.10;99.90;;;;;;5053467;28;19932;-81
2022/06/24 02:33:30;;;;;;;;;;;20.40;99.90;;;;;;5055698;28;19935;-81
2022/06/24 02:35:56;;;;;;;;;;;20.60;99.90;;;;;;5040862;28;20365;-81
2022/06/24 02:38:23;;;;;;;;;;;20.60;99.90;;;;;;5054492;28;19951;-80
2022/06/24 02:40:48;;;;;;;;;;;20.60;99.90;;;;;;5059557;28;20002;-81
2022/06/24 02:43:18;;;;;;;;;;;20.40;99.90;;;;;;5038661;28;19972;-80
2022/06/24 02:45:45;;;;;;;;;;;20.20;99.90;;;;;;5041535;28;19936;-81
2022/06/24 02:48:12;;;;;;;;;;;20.20;99.90;;;;;;5031429;28;19928;-81
2022/06/24 02:50:38;;;;;;;;;;;20.20;99.90;;;;;;5017795;28;19933;-80
2022/06/24 02:53:04;;;;;;;;;;;20.30;99.90;;;;;;5036134;28;19963;-81
2022/06/24 02:55:30;;;;;;;;;;;20.20;99.90;;;;;;5050895;28;20019;-81
2022/06/24 02:57:56;;;;;;;;;;;20.20;99.90;;;;;;5053940;28;19972;-80
2022/06/24 03:00:21;;;;;;;;;;;20.20;99.90;;;;;;5037204;28;20616;-80
2022/06/24 03:02:47;;;;;;;;;;;20.20;99.90;;;;;;5015259;28;19982;-79
2022/06/24 03:05:13;;;;;;;;;;;20.10;99.90;;;;;;5031750;28;19928;-79
2022/06/24 03:07:39;;;;;;;;;;;20.00;99.90;;;;;;5034997;28;20016;-80
2022/06/24 03:10:04;;;;;;;;;;;19.90;99.90;;;;;;5055159;28;19935;-80
2022/06/24 03:12:30;;;;;;;;;;;20.00;99.90;;;;;;5038614;28;20373;-80
2022/06/24 03:14:56;;;;;;;;;;;20.10;99.90;;;;;;5016712;28;20774;-80
2022/06/24 03:17:22;;;;;;;;;;;20.10;99.90;;;;;;5036938;28;19956;-80
2022/06/24 03:19:47;;;;;;;;;;;19.90;99.90;;;;;;5036080;28;19928;-80
2022/06/24 03:22:13;;;;;;;;;;;19.80;99.90;;;;;;5034373;28;19936;-80
2022/06/24 03:24:38;;;;;;;;;;;19.70;99.90;;;;;;5032361;28;19939;-80
2022/06/24 03:27:04;;;;;;;;;;;19.90;99.90;;;;;;5033395;28;19960;-80
2022/06/24 03:29:31;;;;;;;;;;;19.90;99.90;;;;;;5031443;28;19936;-80
2022/06/24 03:31:57;;;;;;;;;;;19.90;99.90;;;;;;5037050;28;19962;-80
2022/06/24 03:34:22;;;;;;;;;;;20.30;99.90;;;;;;5032346;28;20902;-78
2022/06/24 03:36:49;;;;;;;;;;;20.20;99.90;;;;;;5030414;28;20119;-81
2022/06/24 03:39:15;;;;;;;;;;;20.10;99.90;;;;;;5015231;28;19932;-80
2022/06/24 03:41:40;;;;;;;;;;;20.40;99.90;;;;;;5031099;28;20376;-81
2022/06/24 03:44:06;;;;;;;;;;;20.40;99.90;;;;;;5031405;28;20412;-80
2022/06/24 03:46:31;;;;;;;;;;;20.40;99.90;;;;;;5012119;28;19929;-80
2022/06/24 03:48:57;;;;;;;;;;;20.30;99.90;;;;;;5033452;28;20020;-80
2022/06/24 03:51:23;;;;;;;;;;;20.20;99.90;;;;;;5034786;28;19978;-80
2022/06/24 03:53:48;;;;;;;;;;;20.10;99.90;;;;;;5033443;28;19972;-80
2022/06/24 03:56:14;;;;;;;;;;;20.10;99.90;;;;;;5024735;28;20015;-80
2022/06/24 03:58:40;;;;;;;;;;;20.00;99.90;;;;;;5010984;28;19960;-80
2022/06/24 04:01:05;;;;;;;;;;;20.00;99.90;;;;;;5033073;28;20702;-80
2022/06/24 04:03:31;;;;;;;;;;;20.00;99.90;;;;;;5030214;28;20407;-80
2022/06/24 04:05:57;;;;;;;;;;;20.00;99.90;;;;;;5035086;28;20636;-81
2022/06/24 04:08:22;;;;;;;;;;;19.90;99.90;;;;;;5036654;28;19928;-80
2022/06/24 04:10:48;;;;;;;;;;;19.80;99.90;;;;;;5033805;28;20934;-80
2022/06/24 04:13:14;;;;;;;;;;;20.00;99.90;;;;;;5030543;28;19933;-80
2022/06/24 04:15:49;;;;;;;;;;;20.20;99.90;;;;;;5034762;28;20377;-80
2022/06/24 04:18:16;;;;;;;;;;;20.20;99.90;;;;;;5018495;28;20012;-80
2022/06/24 04:20:41;;;;;;;;;;;20.30;99.90;;;;;;5036559;28;19929;-80
2022/06/24 04:23:07;;;;;;;;;;;20.40;99.90;;;;;;5036447;28;19955;-80
2022/06/24 04:25:33;;;;;;;;;;;20.40;99.90;;;;;;5037113;28;20724;-80
2022/06/24 04:27:59;;;;;;;;;;;20.30;99.90;;;;;;5018427;28;20003;-80
2022/06/24 04:30:25;;;;;;;;;;;20.30;99.90;;;;;;5034040;28;19975;-79
2022/06/24 04:32:50;;;;;;;;;;;20.40;99.90;;;;;;5023607;28;19929;-79
2022/06/24 04:35:16;;;;;;;;;;;20.40;99.90;;;;;;5036895;28;20343;-80
2022/06/24 04:37:42;;;;;;;;;;;20.60;99.90;;;;;;5029700;28;19940;-80
2022/06/24 04:40:09;;;;;;;;;;;20.70;99.90;;;;;;5027427;28;19948;-81
2022/06/24 04:42:35;;;;;;;;;;;20.90;99.90;;;;;;5025329;28;19935;-80
2022/06/24 04:45:00;;;;;;;;;;;21.50;99.90;;;;;;5013536;28;19956;-80
2022/06/24 04:47:26;;;;;;;;;;;21.60;99.90;;;;;;5012099;28;19929;-80
2022/06/24 04:49:52;;;;;;;;;;;21.40;99.90;;;;;;5014776;28;19932;-80
2022/06/24 04:52:18;;;;;;;;;;;21.40;99.90;;;;;;5012704;28;20444;-80
2022/06/24 04:54:44;;;;;;;;;;;21.40;99.90;;;;;;5012388;28;19929;-80
2022/06/24 04:57:11;;;;;;;;;;;21.40;99.90;;;;;;5011304;28;19929;-82
2022/06/24 04:59:37;;;;;;;;;;;21.40;99.90;;;;;;5008210;28;19968;-81
2022/06/24 05:02:02;;;;;;;;;;;21.20;99.90;;;;;;5013714;28;20023;-81
2022/06/24 05:04:28;;;;;;;;;;;21.30;99.90;;;;;;5006435;28;19985;-80
2022/06/24 05:06:54;;;;;;;;;;;21.40;99.90;;;;;;5011152;28;20044;-81
2022/06/24 05:09:20;;;;;;;;;;;21.40;99.90;;;;;;5005679;28;19928;-80
2022/06/24 05:11:48;;;;;;;;;;;21.30;99.90;;;;;;5010910;28;19933;-81
2022/06/24 05:14:14;;;;;;;;;;;21.20;99.90;;;;;;5010270;28;20629;-82
2022/06/24 05:16:41;;;;;;;;;;;21.10;99.90;;;;;;5050127;28;19981;-80
2022/06/24 05:19:07;;;;;;;;;;;21.00;99.90;;;;;;5031267;28;20398;-80
2022/06/24 05:21:33;;;;;;;;;;;21.10;99.90;;;;;;5029124;28;20368;-81
2022/06/24 05:23:59;;;;;;;;;;;20.90;99.90;;;;;;5046200;28;19997;-80
2022/06/24 05:26:25;;;;;;;;;;;20.80;99.90;;;;;;5011655;28;19951;-82
2022/06/24 05:28:50;;;;;;;;;;;20.70;99.90;;;;;;5028885;28;19929;-80
2022/06/24 05:31:16;;;;;;;;;;;20.70;99.90;;;;;;5028006;28;19967;-80
2022/06/24 05:33:42;;;;;;;;;;;20.70;99.90;;;;;;5042578;28;19928;-78
2022/06/24 05:36:08;;;;;;;;;;;20.70;99.90;;;;;;5026072;28;20541;-80
2022/06/24 05:38:33;;;;;;;;;;;20.70;99.90;;;;;;5047737;28;20019;-79
2022/06/24 05:40:59;;;;;;;;;;;20.80;99.90;;;;;;5012577;28;20880;-78
2022/06/24 05:43:25;;;;;;;;;;;20.90;99.90;;;;;;5053467;28;19928;-79
2022/06/24 05:45:51;;;;;;;;;;;20.90;99.90;;;;;;5044540;28;19936;-79
2022/06/24 05:48:16;;;;;;;;;;;21.00;99.90;;;;;;5027339;28;19932;-79
2022/06/24 05:50:42;;;;;;;;;;;21.00;99.90;;;;;;5043743;28;19933;-79
2022/06/24 05:55:56;;;;;;;;;;;21.00;99.90;;;;;;5025668;28;19938;-79
2022/06/24 05:58:21;;;;;;;;;;;21.00;99.90;;;;;;5026982;28;19929;-79
2022/06/24 06:00:47;;;;;;;;;;;21.00;99.90;;;;;;5045762;28;19939;-80
2022/06/24 06:03:16;;;;;;;;;;;21.00;99.90;;;;;;5015348;28;19929;-79
2022/06/24 06:05:41;;;;;;;;;;;21.10;99.90;;;;;;5019445;28;19932;-79
2022/06/24 06:08:07;;;;;;;;;;;21.10;99.90;;;;;;5031149;28;19948;-79
2022/06/24 06:10:34;;;;;;;;;;;21.10;99.90;;;;;;5047606;28;19928;-78
2022/06/24 06:13:00;;;;;;;;;;;21.20;99.90;;;;;;5059780;28;19954;-80
2022/06/24 06:15:26;;;;;;;;;;;21.10;99.90;;;;;;5046350;28;19935;-80
2022/06/24 06:17:51;;;;;;;;;;;21.00;99.90;;;;;;5043673;28;19935;-80
2022/06/24 06:20:17;;;;;;;;;;;21.00;99.90;;;;;;5066106;28;19928;-79
2022/06/24 06:22:43;;;;;;;;;;;21.00;99.90;;;;;;5046281;28;20675;-80
2022/06/24 06:25:09;;;;;;;;;;;21.00;99.90;;;;;;5042572;28;19932;-78
2022/06/24 06:27:36;;;;;;;;;;;20.90;99.90;;;;;;5043836;28;19928;-78
2022/06/24 06:30:03;;;;;;;;;;;20.70;99.90;;;;;;5040861;28;19934;-78
2022/06/24 06:32:29;;;;;;;;;;;20.80;99.90;;;;;;5040001;28;19940;-78
2022/06/24 06:34:55;;;;;;;;;;;20.90;99.90;;;;;;5046356;28;19928;-78
2022/06/24 06:37:20;;;;;;;;;;;21.00;99.90;;;;;;5041380;28;19935;-79
2022/06/24 06:39:46;;;;;;;;;;;21.00;99.90;;;;;;5058434;28;19929;-78
2022/06/24 06:42:12;;;;;;;;;;;21.10;99.90;;;;;;5037734;28;19936;-78
2022/06/24 06:44:37;;;;;;;;;;;21.10;99.90;;;;;;5028971;28;19936;-78
2022/06/24 06:47:03;;;;;;;;;;;21.20;99.90;;;;;;5063206;28;19981;-78
2022/06/24 06:49:29;;;;;;;;;;;21.10;99.90;;;;;;5060534;28;19932;-78
2022/06/24 06:51:54;;;;;;;;;;;21.10;99.90;;;;;;5045342;28;20161;-77
2022/06/24 06:54:20;;;;;;;;;;;20.90;99.90;;;;;;5053374;28;19971;-78
2022/06/24 06:56:46;;;;;;;;;;;20.80;99.90;;;;;;5043157;28;20997;-78
2022/06/24 06:59:11;;;;;;;;;;;20.80;99.90;;;;;;5029326;28;19928;-79
2022/06/24 07:01:37;;;;;;;;;;;20.90;99.90;;;;;;5041800;28;20396;-79
2022/06/24 07:04:03;;;;;;;;;;;21.00;99.90;;;;;;5037774;28;19928;-78
2022/06/24 07:06:28;;;;;;;;;;;21.00;99.90;;;;;;5040293;28;20032;-79
2022/06/24 07:08:54;;;;;;;;;;;21.00;99.90;;;;;;5042999;28;20298;-79
2022/06/24 07:11:20;;;;;;;;;;;20.90;99.90;;;;;;5043242;28;19975;-79
2022/06/24 07:13:45;;;;;;;;;;;20.90;99.90;;;;;;5045381;28;19935;-79
2022/06/24 07:16:11;;;;;;;;;;;20.90;99.90;;;;;;5052725;28;19986;-79
2022/06/24 07:18:37;;;;;;;;;;;20.80;99.90;;;;;;5057295;28;20544;-80
2022/06/24 07:21:03;;;;;;;;;;;20.80;99.90;;;;;;5039154;28;19947;-79
2022/06/24 07:23:28;;;;;;;;;;;20.70;99.90;;;;;;5060723;28;19932;-80
2022/06/24 07:25:58;;;;;;;;;;;20.60;99.90;;;;;;5052807;28;19928;-80
2022/06/24 07:28:25;;;;;;;;;;;20.60;99.90;;;;;;5056151;28;19933;-80
2022/06/24 07:30:51;;;;;;;;;;;20.70;99.90;;;;;;5059147;28;19935;-80
2022/06/24 07:33:16;;;;;;;;;;;20.60;99.90;;;;;;5054306;28;19928;-79
2022/06/24 07:35:42;;;;;;;;;;;20.80;99.90;;;;;;5040393;28;20453;-80
2022/06/24 07:38:07;;;;;;;;;;;21.00;99.90;;;;;;5043588;28;20034;-81
2022/06/24 07:40:33;;;;;;;;;;;21.00;99.90;;;;;;5037460;28;19932;-82
2022/06/24 07:42:59;;;;;;;;;;;21.00;99.90;;;;;;5044535;28;19935;-80
2022/06/24 07:45:25;;;;;;;;;;;20.90;99.90;;;;;;5057589;28;19982;-80
2022/06/24 07:47:50;;;;;;;;;;;21.00;99.90;;;;;;5064135;28;19931;-80
2022/06/24 07:50:16;;;;;;;;;;;21.00;99.90;;;;;;5026760;28;20450;-79
2022/06/24 07:52:42;;;;;;;;;;;21.00;99.90;;;;;;5035405;28;20531;-81
2022/06/24 07:57:52;;;;;;;;;;;21.00;99.90;;;;;;5042767;28;19977;-80
2022/06/24 08:00:18;;;;;;;;;;;21.00;99.90;;;;;;5041719;28;19928;-80
2022/06/24 08:02:43;;;;;;;;;;;21.00;99.90;;;;;;5063434;28;20022;-80
2022/06/24 08:05:09;;;;;;;;;;;21.10;99.90;;;;;;5016265;28;19928;-81
2022/06/24 08:07:35;;;;;;;;;;;21.10;99.90;;;;;;5044449;28;20445;-82
2022/06/24 08:10:00;;;;;;;;;;;21.10;99.90;;;;;;5027535;28;19928;-81
2022/06/24 08:12:26;;;;;;;;;;;21.00;99.90;;;;;;5054719;28;19981;-80
2022/06/24 08:14:52;;;;;;;;;;;21.10;99.90;;;;;;5060330;28;19928;-81
2022/06/24 08:17:18;;;;;;;;;;;21.10;99.90;;;;;;5060953;28;19928;-81
2022/06/24 08:19:44;;;;;;;;;;;21.10;99.90;;;;;;5040440;28;19928;-82
2022/06/24 08:22:10;;;;;;;;;;;21.00;99.90;;;;;;5061392;28;20768;-82
2022/06/24 08:24:35;;;;;;;;;;;21.00;99.90;;;;;;5058927;28;20115;-80
2022/06/24 08:27:01;;;;;;;;;;;20.90;99.90;;;;;;5037736;28;19932;-81
2022/06/24 08:29:27;;;;;;;;;;;20.80;99.90;;;;;;5037364;28;19937;-82
2022/06/24 08:31:53;;;;;;;;;;;20.80;99.90;;;;;;5035391;28;19928;-81
2022/06/24 08:34:21;;;;;;;;;;;20.90;99.90;;;;;;5033530;28;20254;-82
2022/06/24 08:36:47;;;;;;;;;;;20.90;99.90;;;;;;5015816;28;19994;-82
2022/06/24 08:39:12;;;;;;;;;;;21.00;99.90;;;;;;5030905;28;20466;-82
2022/06/24 08:41:38;;;;;;;;;;;20.90;99.90;;;;;;5037042;28;19931;-81
2022/06/24 08:44:04;;;;;;;;;;;20.90;99.90;;;;;;5032241;28;20096;-81
2022/06/24 08:46:30;;;;;;;;;;;21.10;99.90;;;;;;5061119;28;20371;-81
2022/06/24 08:48:58;;;;;;;;;;;21.10;99.90;;;;;;5063158;28;20609;-80
2022/06/24 08:51:25;;;;;;;;;;;21.20;99.90;;;;;;5062189;28;19960;-82
2022/06/24 08:53:53;;;;;;;;;;;21.30;99.90;;;;;;5058584;28;20014;-82
2022/06/24 08:56:19;;;;;;;;;;;21.20;99.90;;;;;;5039524;28;20057;-83
2022/06/24 08:58:44;;;;;;;;;;;21.20;99.90;;;;;;5023594;28;19932;-81
2022/06/24 09:01:12;;;;;;;;;;;21.20;99.90;;;;;;5039685;28;19936;-82
2022/06/24 09:03:38;;;;;;;;;;;21.10;99.90;;;;;;5059333;28;20328;-83
2022/06/24 09:06:14;;;;;;;;;;;21.10;99.90;;;;;;5037503;28;19936;-82
2022/06/24 09:08:40;;;;;;;;;;;21.00;99.90;;;;;;5042334;28;19928;-81
2022/06/24 09:11:06;;;;;;;;;;;21.00;99.90;;;;;;5042774;28;19940;-81
2022/06/24 09:13:48;;;;;;;;;;;20.90;99.90;;;;;;5040538;28;19928;-81
2022/06/24 09:16:17;;;;;;;;;;;21.00;99.90;;;;;;5039651;28;19935;-80
2022/06/24 09:18:53;;;;;;;;;;;21.20;99.90;;;;;;5038974;28;19928;-81
2022/06/24 09:21:23;;;;;;;;;;;21.30;99.90;;;;;;5055392;28;19933;-81
2022/06/24 09:23:53;;;;;;;;;;;21.30;99.90;;;;;;5034199;28;20479;-80
2022/06/24 09:26:41;;;;;;;;;;;21.20;99.90;;;;;;5033354;28;20459;-82
2022/06/24 09:29:10;;;;;;;;;;;21.10;99.90;;;;;;5055528;28;20609;-81
2022/06/24 09:31:37;;;;;;;;;;;21.00;99.90;;;;;;5040479;28;19927;-80
2022/06/24 09:34:07;;;;;;;;;;;20.90;99.90;;;;;;5038351;28;19963;-82
2022/06/24 09:36:33;;;;;;;;;;;21.00;99.90;;;;;;5041159;28;19932;-82
2022/06/24 09:39:00;;;;;;;;;;;20.70;99.90;;;;;;5036128;28;19928;-86
2022/06/24 09:41:26;;;;;;;;;;;20.70;99.90;;;;;;5040947;28;19935;-86
2022/06/24 09:43:52;;;;;;;;;;;20.50;99.90;;;;;;5039126;28;19928;-89
2022/06/24 09:46:19;;;;;;;;;;;20.40;99.90;;;;;;5018382;28;19928;-90
2022/06/24 09:48:45;;;;;;;;;;;20.20;99.90;;;;;;5024106;28;19935;-87
2022/06/24 09:51:11;;;;;;;;;;;20.00;99.90;;;;;;5013747;28;20588;-86
2022/06/24 09:53:40;;;;;;;;;;;19.80;99.90;;;;;;5022683;28;20030;-84
2022/06/24 09:56:07;;;;;;;;;;;19.70;99.90;;;;;;5039602;28;19950;-84
2022/06/24 09:58:37;;;;;;;;;;;19.60;99.90;;;;;;5044094;28;19982;-82
2022/06/24 10:01:03;;;;;;;;;;;19.60;99.90;;;;;;5045207;28;19929;-86
2022/06/24 10:03:30;;;;;;;;;;;19.50;99.90;;;;;;5028407;28;20027;-87
2022/06/24 10:06:00;;;;;;;;;;;19.50;99.90;;;;;;5027326;28;19928;-85
2022/06/24 10:08:28;;;;;;;;;;;19.60;99.90;;;;;;5041354;28;19940;-86
2022/06/24 10:10:55;;;;;;;;;;;19.60;99.90;;;;;;5045589;28;19928;-87
2022/06/24 10:13:20;;;;;;;;;;;19.60;99.90;;;;;;5025489;28;19935;-85
2022/06/24 10:15:46;;;;;;;;;;;19.60;99.90;;;;;;5042367;28;19967;-86
2022/06/24 10:18:12;;;;;;;;;;;19.60;99.90;;;;;;5039048;28;19995;-87
2022/06/24 10:20:42;;;;;;;;;;;19.70;99.90;;;;;;5043071;28;19972;-87
2022/06/24 10:23:07;;;;;;;;;;;19.60;99.90;;;;;;5036438;28;19929;-86
2022/06/24 10:25:45;;;;;;;;;;;19.60;99.90;;;;;;5039177;28;20338;-87
2022/06/24 10:28:11;;;;;;;;;;;19.60;99.90;;;;;;5019295;28;20615;-87
2022/06/24 10:30:39;;;;;;;;;;;19.70;99.90;;;;;;5008697;28;19940;-85
2022/06/24 10:33:10;;;;;;;;;;;19.70;99.90;;;;;;5034231;28;20690;-85
2022/06/24 10:35:58;;;;;;;;;;;19.80;99.90;;;;;;5021987;28;19960;-86
2022/06/24 10:38:25;;;;;;;;;;;19.70;99.90;;;;;;5040285;28;19950;-88
2022/06/24 10:40:51;;;;;;;;;;;19.80;99.90;;;;;;5013251;28;19998;-87
2022/06/24 10:43:36;;;;;;;;;;;19.80;99.90;;;;;;5035520;28;19954;-86
2022/06/24 10:46:16;;;;;;;;;;;19.80;99.90;;;;;;5044964;28;20687;-85
2022/06/24 10:48:56;;;;;;;;;;;19.80;99.90;;;;;;5043643;28;20490;-85
2022/06/24 10:51:22;;;;;;;;;;;19.70;99.90;;;;;;5037831;28;19932;-85
2022/06/24 10:54:03;;;;;;;;;;;19.70;99.90;;;;;;5044039;28;19935;-84
2022/06/24 10:56:35;;;;;;;;;;;19.70;99.90;;;;;;5039135;28;19936;-84
2022/06/24 10:59:00;;;;;;;;;;;19.70;99.90;;;;;;5043176;28;19928;-84
2022/06/24 11:01:26;;;;;;;;;;;19.70;99.90;;;;;;5037058;28;19973;-84
2022/06/24 11:03:52;;;;;;;;;;;19.70;99.90;;;;;;5053910;28;19932;-83
2022/06/24 11:06:18;;;;;;;;;;;19.90;99.90;;;;;;5036013;28;20833;-84
2022/06/24 11:08:43;;;;;;;;;;;20.10;99.90;;;;;;5041783;28;19934;-82
2022/06/24 11:11:09;;;;;;;;;;;20.40;99.90;;;;;;4998568;28;20022;-83
2022/06/24 11:13:35;;;;;;;;;;;20.70;99.90;;;;;;5040274;28;19931;-82
2022/06/24 11:16:01;;;;;;;;;;;21.00;99.90;;;;;;5022398;28;20843;-83
2022/06/24 11:18:31;;;;;;;;;;;21.20;99.90;;;;;;5042004;28;19935;-80
2022/06/24 11:20:59;;;;;;;;;;;21.40;99.90;;;;;;5059410;28;19928;-82
2022/06/24 11:23:26;;;;;;;;;;;21.60;99.90;;;;;;5029653;28;20039;-82
2022/06/24 11:25:56;;;;;;;;;;;21.70;99.90;;;;;;5042138;28;19928;-81
2022/06/24 11:28:26;;;;;;;;;;;21.70;99.90;;;;;;5042879;28;19971;-82
2022/06/24 11:30:53;;;;;;;;;;;21.90;99.90;;;;;;5042527;28;19928;-81
2022/06/24 11:33:19;;;;;;;;;;;21.90;99.90;;;;;;5065220;28;19940;-82
2022/06/24 11:35:46;;;;;;;;;;;21.90;99.90;;;;;;5038286;28;19928;-82
2022/06/24 11:38:12;;;;;;;;;;;21.80;99.90;;;;;;5043963;28;20019;-83
2022/06/24 11:40:39;;;;;;;;;;;21.60;99.90;;;;;;5041524;28;19977;-82
2022/06/24 11:43:12;;;;;;;;;;;21.60;99.90;;;;;;5037633;28;19936;-82
2022/06/24 11:45:43;;;;;;;;;;;21.70;99.90;;;;;;5042215;28;20042;-82
2022/06/24 11:48:10;;;;;;;;;;;21.80;99.90;;;;;;5058753;28;19975;-82
2022/06/24 11:50:36;;;;;;;;;;;22.20;99.90;;;;;;5039862;28;20495;-82
2022/06/24 11:53:03;;;;;;;;;;;22.40;99.90;;;;;;5024036;28;19928;-81
2022/06/24 11:55:30;;;;;;;;;;;22.60;99.90;;;;;;5028990;28;19940;-80
2022/06/24 11:57:59;;;;;;;;;;;22.60;99.90;;;;;;5060616;28;19928;-81
2022/06/24 12:00:26;;;;;;;;;;;22.50;99.90;;;;;;5060610;28;19928;-82
2022/06/24 12:02:52;;;;;;;;;;;22.50;99.90;;;;;;5038916;28;20066;-81
2022/06/24 12:05:19;;;;;;;;;;;22.50;99.90;;;;;;5042396;28;20547;-82
2022/06/24 12:07:45;;;;;;;;;;;22.60;99.90;;;;;;5038742;28;20389;-80
2022/06/24 12:10:11;;;;;;;;;;;22.70;99.90;;;;;;5038614;28;19928;-82
2022/06/24 12:12:55;;;;;;;;;;;22.80;99.90;;;;;;5040237;28;20834;-81
2022/06/24 12:15:22;;;;;;;;;;;23.20;99.90;;;;;;5059156;28;20012;-80
2022/06/24 12:17:52;;;;;;;;;;;23.40;99.90;;;;;;5036701;28;20807;-80
2022/06/24 12:20:23;;;;;;;;;;;23.70;99.90;;;;;;5038228;28;19928;-81
2022/06/24 12:23:07;;;;;;;;;;;23.70;99.90;;;;;;5061290;28;20030;-82
2022/06/24 12:25:38;;;;;;;;;;;23.90;99.90;;;;;;5061981;28;19982;-83
2022/06/24 12:28:11;;;;;;;;;;;24.00;99.90;;;;;;5038853;28;19977;-81
2022/06/24 12:30:37;;;;;;;;;;;24.10;99.90;;;;;;5041292;28;19928;-80
2022/06/24 12:33:03;;;;;;;;;;;24.00;99.90;;;;;;5062544;28;19967;-81
2022/06/24 12:35:29;;;;;;;;;;;24.00;99.90;;;;;;5043354;28;20051;-82
2022/06/24 12:37:55;;;;;;;;;;;23.90;99.90;;;;;;5024223;28;19928;-81
2022/06/24 12:40:24;;;;;;;;;;;23.80;99.90;;;;;;5040173;28;19928;-80
2022/06/24 12:43:06;;;;;;;;;;;24.00;99.90;;;;;;5044293;28;20058;-79
2022/06/24 12:45:35;;;;;;;;;;;23.80;99.90;;;;;;5060456;28;20392;-81
2022/06/24 12:50:55;;;;;;;;;;;23.60;99.90;;;;;;5040788;28;19978;-79
2022/06/24 12:53:21;;;;;;;;;;;23.70;99.90;;;;;;5061685;28;20827;-80
2022/06/24 12:55:46;;;;;;;;;;;23.70;99.90;;;;;;5040259;28;19928;-80
2022/06/24 12:58:12;;;;;;;;;;;23.90;99.90;;;;;;5059256;28;20381;-79
2022/06/24 13:00:38;;;;;;;;;;;24.00;99.90;;;;;;5042680;28;19932;-81
2022/06/24 13:03:03;;;;;;;;;;;24.10;99.90;;;;;;5042801;28;20697;-80
2022/06/24 13:05:29;;;;;;;;;;;24.30;99.90;;;;;;5060175;28;19932;-81
2022/06/24 13:07:54;;;;;;;;;;;24.30;99.90;;;;;;5045560;28;19935;-81
2022/06/24 13:10:23;;;;;;;;;;;24.10;99.90;;;;;;5027788;28;19998;-80
2022/06/24 13:12:50;;;;;;;;;;;24.20;99.90;;;;;;5041915;28;20858;-82
2022/06/24 13:15:16;;;;;;;;;;;24.10;99.90;;;;;;5037511;28;19981;-79
2022/06/24 13:17:42;;;;;;;;;;;24.10;99.90;;;;;;5042745;28;19934;-80
2022/06/24 13:20:09;;;;;;;;;;;24.20;99.90;;;;;;5033736;28;19932;-81
2022/06/24 13:22:35;;;;;;;;;;;24.10;99.90;;;;;;5062669;28;20212;-79
2022/06/24 13:25:01;;;;;;;;;;;24.00;99.90;;;;;;5041575;28;19932;-79
2022/06/24 13:27:27;;;;;;;;;;;24.20;99.90;;;;;;5061439;28;19943;-80
2022/06/24 13:29:53;;;;;;;;;;;24.50;99.90;;;;;;5040618;28;19953;-80
2022/06/24 13:32:18;;;;;;;;;;;25.00;99.90;;;;;;5042710;28;20333;-78
2022/06/24 13:34:44;;;;;;;;;;;25.30;99.90;;;;;;5035211;28;19935;-78
2022/06/24 13:37:10;;;;;;;;;;;25.60;99.90;;;;;;5044848;28;20484;-77
2022/06/24 13:39:36;;;;;;;;;;;25.80;99.90;;;;;;5044465;28;19927;-78
2022/06/24 13:42:04;;;;;;;;;;;26.10;99.90;;;;;;5048677;28;19932;-78
2022/06/24 13:44:29;;;;;;;;;;;26.50;99.90;;;;;;5048562;28;19943;-81
2022/06/24 13:46:55;;;;;;;;;;;26.30;99.90;;;;;;5043612;28;19928;-80
2022/06/24 13:49:21;;;;;;;;;;;26.00;99.90;;;;;;5045854;28;20135;-80
2022/06/24 13:51:47;;;;;;;;;;;25.70;99.90;;;;;;5037661;28;20583;-80
2022/06/24 13:54:13;;;;;;;;;;;25.70;99.90;;;;;;5040228;28;19932;-82
2022/06/24 13:56:38;;;;;;;;;;;26.20;99.90;;;;;;5049177;28;19939;-81
2022/06/24 13:59:05;;;;;;;;;;;26.20;99.90;;;;;;5048424;28;19977;-81
2022/06/24 14:01:30;;;;;;;;;;;26.40;99.90;;;;;;5048354;28;19935;-82
2022/06/24 14:03:56;;;;;;;;;;;26.70;99.90;;;;;;5044643;28;19932;-81
2022/06/24 14:06:22;;;;;;;;;;;26.30;99.90;;;;;;5044060;28;19932;-82
2022/06/24 14:08:48;;;;;;;;;;;26.30;99.90;;;;;;5028322;28;20015;-81
2022/06/24 14:11:14;;;;;;;;;;;26.20;99.90;;;;;;5027972;28;20043;-83
2022/06/24 14:13:40;;;;;;;;;;;26.10;99.90;;;;;;5011529;28;19928;-81
2022/06/24 14:16:06;;;;;;;;;;;26.40;99.90;;;;;;5008820;28;19925;-80
2022/06/24 14:18:32;;;;;;;;;;;26.80;99.90;;;;;;5024388;28;19935;-83
2022/06/24 14:20:58;;;;;;;;;;;27.20;99.90;;;;;;5015982;28;20889;-81
2022/06/24 14:26:08;;;;;;;;;;;27.10;99.90;;;;;;5036001;28;19928;-80
2022/06/24 14:28:34;;;;;;;;;;;26.90;99.90;;;;;;5032452;28;19928;-82
2022/06/24 14:31:01;;;;;;;;;;;27.30;99.90;;;;;;5031817;28;19947;-82